Longbranch, Washington
Current Conditions -  °F | °C
As of 12:53 PM on Saturday 25 Oct 2014 (Local Time) from KTIW Reporting Station
Broken Clouds Broken Clouds  
Wind Chill: 55°   Ceiling: 9000
Heat Index: 55°   Visibility: 10mi
Dew Point: 50°   Wind: 5mph
Humidity: 83%   Direction: 360°N
Pressure: 29.36"   Gusts: NA
Location:  47.21°N, 122.76°W
Report Text: KTIW 251953Z 36004KT 10SM BKN090 13/10 A2936 RMK AO2 RAB33E45 SLP941 P0000 T01280100
Loading
Personal Weather Stations






























Interactive Weather Map
Tropical Storm Tracking
New forecast layout! Learn more

10-Day Weather Forecast

Advertisements
Track Severe Weather on mobile